Time;durP1;ratioP1;P1;durP2;ratioP2;P2;SDS_P1;SDS_P2;PMS_P1;PMS_P2;Temp;Humidity;BMP_temperature;BMP_pressure;BME280_temperature;BME280_humidity;BME280_pressure;Samples;Min_cycle;Max_cycle;Signal;HPM_P1;HPM_P2
2021/03/07 00:00:10;;;;;;;3.25;0.30;;;;;;;2.19;44.35;102842.34;5042970;28;20032;-69
2021/03/07 00:02:35;;;;;;;3.13;0.30;;;;;;;2.27;44.08;102839.13;5042264;28;20126;-69
2021/03/07 00:05:01;;;;;;;1.52;0.20;;;;;;;2.11;44.72;102840.44;5041265;28;20116;-69
2021/03/07 00:07:26;;;;;;;0.43;0.20;;;;;;;2.37;44.08;102836.78;5042640;28;20033;-69
2021/03/07 00:09:52;;;;;;;2.58;0.30;;;;;;;2.45;43.62;102835.28;5040482;28;20099;-69
2021/03/07 00:12:17;;;;;;;2.67;0.40;;;;;;;2.20;44.12;102834.66;5040565;28;20037;-69
2021/03/07 00:14:42;;;;;;;0.63;0.30;;;;;;;2.18;43.18;102841.47;5044988;28;20048;-69
2021/03/07 00:17:08;;;;;;;0.93;0.28;;;;;;;2.31;42.43;102827.16;5044195;28;20464;-70
2021/03/07 00:19:34;;;;;;;3.20;0.47;;;;;;;2.39;42.07;102832.53;5024855;28;20136;-70
2021/03/07 00:21:59;;;;;;;0.88;0.20;;;;;;;1.94;42.34;102827.06;5045670;28;21420;-69
2021/03/07 00:24:25;;;;;;;3.08;0.47;;;;;;;2.30;41.75;102825.44;5046590;28;20025;-69
2021/03/07 00:26:50;;;;;;;6.00;0.43;;;;;;;2.47;41.76;102823.31;5040645;28;20037;-69
2021/03/07 00:29:16;;;;;;;2.65;0.50;;;;;;;2.48;41.44;102820.72;5040510;28;20502;-69
2021/03/07 00:31:41;;;;;;;6.47;0.75;;;;;;;2.37;41.16;102818.72;5042291;28;20497;-69
2021/03/07 00:34:07;;;;;;;2.78;0.20;;;;;;;2.34;41.17;102822.97;5027478;28;20037;-69
2021/03/07 00:36:32;;;;;;;0.65;0.30;;;;;;;2.51;40.61;102809.59;5030354;28;20028;-69
2021/03/07 00:38:58;;;;;;;0.95;0.30;;;;;;;2.31;41.20;102815.16;5039944;28;20408;-69
2021/03/07 00:41:23;;;;;;;2.08;0.35;;;;;;;2.36;40.78;102804.97;5024351;28;20029;-69
2021/03/07 00:43:49;;;;;;;2.17;0.10;;;;;;;2.46;41.08;102803.47;5040688;28;20172;-74
2021/03/07 00:46:14;;;;;;;3.05;0.20;;;;;;;2.53;41.13;102798.50;5040971;28;20091;-69
2021/03/07 00:48:40;;;;;;;1.52;0.10;;;;;;;2.38;41.12;102802.41;5040987;28;20414;-68
2021/03/07 00:51:05;;;;;;;0.55;0.13;;;;;;;2.14;41.69;102790.63;5045403;28;20071;-69
2021/03/07 00:53:30;;;;;;;3.33;0.38;;;;;;;2.05;41.43;102795.56;5038904;28;20152;-69
2021/03/07 00:55:56;;;;;;;2.35;0.82;;;;;;;2.19;41.60;102796.78;5040734;28;20167;-69
2021/03/07 00:58:21;;;;;;;1.13;0.40;;;;;;;2.25;41.41;102794.34;5041367;28;20029;-69
2021/03/07 01:00:48;;;;;;;0.90;0.10;;;;;;;2.34;41.32;102780.81;5040897;28;20519;-70
2021/03/07 01:03:14;;;;;;;4.25;0.30;;;;;;;2.11;41.71;102786.28;5044968;28;20033;-70
2021/03/07 01:05:40;;;;;;;4.07;0.30;;;;;;;2.05;41.99;102782.66;5043573;28;20029;-70
2021/03/07 01:08:07;;;;;;;5.22;0.30;;;;;;;2.06;41.81;102776.66;5027162;28;20063;-70
2021/03/07 01:10:38;;;;;;;0.77;0.20;;;;;;;2.35;41.34;102778.28;5041022;28;20424;-70
2021/03/07 01:13:06;;;;;;;7.57;0.40;;;;;;;2.04;42.08;102778.31;5035959;28;20033;-70
2021/03/07 01:15:33;;;;;;;0.10;0.10;;;;;;;2.09;42.43;102771.59;5042531;28;20041;-70
2021/03/07 01:18:00;;;;;;;1.35;0.38;;;;;;;1.87;43.00;102759.84;5038760;28;20082;-70
2021/03/07 01:20:25;;;;;;;2.40;0.10;;;;;;;2.02;43.04;102762.81;5043300;28;20051;-70
2021/03/07 01:22:52;;;;;;;1.05;0.20;;;;;;;1.77;43.82;102766.44;5039022;28;20480;-70
2021/03/07 01:25:20;;;;;;;3.85;0.95;;;;;;;1.78;43.96;102752.72;5041076;28;20053;-70
2021/03/07 01:27:46;;;;;;;1.55;0.35;;;;;;;1.76;43.97;102750.94;5022792;28;20433;-69
2021/03/07 01:30:13;;;;;;;3.60;0.20;;;;;;;1.92;44.00;102742.78;5042726;28;20059;-70
2021/03/07 01:32:39;;;;;;;1.88;0.20;;;;;;;1.66;44.52;102736.91;5026824;28;20065;-70
2021/03/07 01:35:05;;;;;;;0.68;0.20;;;;;;;2.14;43.33;102737.31;5044361;28;20063;-70
2021/03/07 01:37:30;;;;;;;0.80;0.10;;;;;;;2.07;43.53;102726.81;5037750;28;20029;-70
2021/03/07 01:39:56;;;;;;;1.55;0.40;;;;;;;2.07;43.22;102727.69;5038347;28;20710;-70
2021/03/07 01:42:21;;;;;;;1.60;0.40;;;;;;;1.76;43.98;102723.44;5040628;28;20116;-70
2021/03/07 01:44:47;;;;;;;1.13;0.32;;;;;;;1.78;43.71;102708.91;5038707;28;20396;-70
2021/03/07 01:47:17;;;;;;;7.55;1.23;;;;;;;1.96;43.51;102710.22;5044329;28;20090;-70
2021/03/07 01:49:43;;;;;;;5.93;0.28;;;;;;;2.08;43.23;102705.34;5041137;28;20128;-70
2021/03/07 01:52:08;;;;;;;5.07;0.50;;;;;;;2.22;42.80;102704.00;5043079;28;20391;-69
2021/03/07 01:54:34;;;;;;;10.02;0.20;;;;;;;2.10;42.80;102698.50;5039523;28;20040;-70
2021/03/07 01:57:02;;;;;;;0.75;0.20;;;;;;;2.39;42.53;102698.34;5059412;28;20097;-70
2021/03/07 01:59:30;;;;;;;2.28;0.30;;;;;;;2.30;42.41;102702.44;5039207;28;20033;-70
2021/03/07 02:01:57;;;;;;;1.65;0.17;;;;;;;2.22;42.44;102688.50;5028894;28;20033;-69
2021/03/07 02:04:22;;;;;;;2.25;0.13;;;;;;;1.96;43.07;102685.28;5042460;28;20028;-70
2021/03/07 02:06:48;;;;;;;0.57;0.10;;;;;;;1.64;43.55;102684.44;5038011;28;20037;-69
2021/03/07 02:09:13;;;;;;;1.70;0.20;;;;;;;1.83;42.91;102681.50;5047329;28;20029;-70
2021/03/07 02:11:40;;;;;;;4.00;0.65;;;;;;;2.16;42.37;102679.75;5038641;28;20499;-70
2021/03/07 02:14:07;;;;;;;0.80;0.30;;;;;;;2.44;41.64;102678.66;5040971;28;20639;-71
2021/03/07 02:16:34;;;;;;;3.05;0.30;;;;;;;1.86;42.61;102668.72;5027819;28;20057;-70
2021/03/07 02:19:00;;;;;;;0.65;0.20;;;;;;;1.60;43.12;102670.63;5038907;28;20082;-70
2021/03/07 02:21:33;;;;;;;3.42;0.30;;;;;;;1.86;42.97;102673.88;5042462;28;20087;-70
2021/03/07 02:24:11;;;;;;;2.13;0.45;;;;;;;1.81;42.91;102670.28;5021824;28;20048;-70
2021/03/07 02:26:40;;;;;;;2.80;0.38;;;;;;;1.69;42.83;102665.69;5040108;28;20420;-70
2021/03/07 02:29:08;;;;;;;1.00;0.20;;;;;;;1.89;42.72;102660.19;5035959;28;20072;-70
2021/03/07 02:31:39;;;;;;;2.53;0.15;;;;;;;1.40;43.65;102662.34;5024438;28;20108;-69
2021/03/07 02:34:14;;;;;;;0.70;0.23;;;;;;;1.69;43.01;102650.22;5038847;28;20037;-70
2021/03/07 02:36:48;;;;;;;2.20;0.50;;;;;;;1.84;43.11;102651.44;5037672;28;20037;-70
2021/03/07 02:39:16;;;;;;;0.95;0.20;;;;;;;1.68;43.52;102653.63;5037411;28;20123;-70
2021/03/07 02:41:42;;;;;;;0.90;0.20;;;;;;;1.48;44.52;102645.41;5038292;28;20069;-70
2021/03/07 02:44:11;;;;;;;10.80;0.65;;;;;;;0.82;46.91;102642.69;5038484;28;20056;-70
2021/03/07 02:46:38;;;;;;;1.65;0.50;;;;;;;1.31;46.78;102634.59;5038895;28;20464;-70
2021/03/07 02:49:08;;;;;;;2.60;0.60;;;;;;;1.54;46.80;102628.34;5037949;28;20657;-69
2021/03/07 02:51:35;;;;;;;1.08;0.38;;;;;;;1.61;46.75;102627.66;5039944;28;20539;-70
2021/03/07 02:54:06;;;;;;;4.25;1.05;;;;;;;1.90;46.25;102628.38;5019903;28;20041;-70
2021/03/07 02:56:35;;;;;;;2.53;0.55;;;;;;;1.85;46.16;102622.25;5041577;28;20049;-70
2021/03/07 02:59:12;;;;;;;2.80;1.20;;;;;;;1.83;46.42;102618.78;5037548;28;20090;-70
2021/03/07 03:01:39;;;;;;;2.22;0.50;;;;;;;2.01;46.06;102616.63;5040212;28;20068;-70
2021/03/07 03:04:07;;;;;;;2.75;0.70;;;;;;;1.96;46.34;102618.22;5037006;28;20088;-70
2021/03/07 03:06:36;;;;;;;1.42;0.40;;;;;;;2.10;45.81;102610.81;5034560;28;20041;-70
2021/03/07 03:09:03;;;;;;;1.27;0.40;;;;;;;1.97;46.11;102609.66;5036737;28;20039;-70
2021/03/07 03:11:35;;;;;;;4.70;0.50;;;;;;;2.00;46.20;102606.25;5035724;28;20024;-69
2021/03/07 03:14:01;;;;;;;3.10;1.17;;;;;;;1.76;47.01;102609.16;5029586;28;20048;-70
2021/03/07 03:16:29;;;;;;;1.45;0.65;;;;;;;1.54;47.22;102607.72;5037624;28;20032;-70
2021/03/07 03:18:56;;;;;;;2.40;0.98;;;;;;;1.97;46.11;102606.19;5031560;28;20193;-70
2021/03/07 03:21:22;;;;;;;1.63;0.75;;;;;;;2.05;45.96;102597.81;5036482;28;20040;-70
2021/03/07 03:23:49;;;;;;;2.03;1.15;;;;;;;1.98;45.78;102595.06;5034227;28;20037;-70
2021/03/07 03:26:17;;;;;;;1.65;0.70;;;;;;;1.75;46.31;102604.81;5036946;28;20040;-70
2021/03/07 03:28:42;;;;;;;2.35;0.65;;;;;;;1.77;46.57;102601.44;5034005;28;20037;-70
2021/03/07 03:31:08;;;;;;;4.57;0.57;;;;;;;1.65;46.74;102601.16;5036395;28;20040;-70
2021/03/07 03:33:33;;;;;;;8.50;1.52;;;;;;;1.96;46.05;102591.56;5033827;28;20067;-70
2021/03/07 03:35:59;;;;;;;1.05;0.38;;;;;;;1.64;46.66;102599.38;5033377;28;20045;-71
2021/03/07 03:38:56;;;;;;;1.33;0.50;;;;;;;1.93;46.29;102593.25;5024981;28;20040;-70
2021/03/07 03:41:24;;;;;;;3.28;0.73;;;;;;;1.66;47.09;102593.47;5019806;28;20072;-70
2021/03/07 03:43:53;;;;;;;3.22;0.70;;;;;;;1.86;46.37;102586.22;5032132;28;20044;-70
2021/03/07 03:46:20;;;;;;;2.55;0.45;;;;;;;1.69;47.13;102588.38;5036607;28;20029;-70
2021/03/07 03:48:52;;;;;;;5.40;0.73;;;;;;;1.99;46.54;102586.47;5034075;28;20152;-69
2021/03/07 03:51:19;;;;;;;3.38;0.73;;;;;;;1.52;47.61;102590.50;5051992;28;20567;-70
2021/03/07 03:53:46;;;;;;;5.20;0.68;;;;;;;1.75;47.22;102590.19;5030664;28;20040;-70
2021/03/07 03:56:15;;;;;;;1.80;0.80;;;;;;;1.98;46.72;102577.00;5035839;28;20036;-69
2021/03/07 03:58:42;;;;;;;2.00;0.77;;;;;;;1.81;47.25;102590.34;5038081;28;20063;-70
2021/03/07 04:01:10;;;;;;;5.47;0.70;;;;;;;1.84;47.04;102581.81;5034383;28;20045;-70
2021/03/07 04:03:37;;;;;;;3.22;0.57;;;;;;;1.69;47.42;102582.34;5038025;28;20112;-70
2021/03/07 04:06:03;;;;;;;1.88;0.63;;;;;;;1.49;47.81;102577.56;5034157;28;20150;-70
2021/03/07 04:08:29;;;;;;;2.85;0.50;;;;;;;1.75;47.13;102577.31;5035627;28;20048;-70
2021/03/07 04:10:57;;;;;;;2.08;0.52;;;;;;;1.78;47.16;102567.09;5033813;28;20411;-70
2021/03/07 04:13:25;;;;;;;2.88;0.90;;;;;;;1.69;47.23;102577.19;5033466;28;20029;-71
2021/03/07 04:15:52;;;;;;;5.32;2.05;;;;;;;1.97;46.50;102572.66;5031919;28;20542;-70
2021/03/07 04:18:21;;;;;;;8.48;1.05;;;;;;;1.69;46.94;102567.75;5035060;28;20041;-70
2021/03/07 04:20:47;;;;;;;1.38;0.80;;;;;;;1.61;47.16;102578.69;5022736;28;20480;-70
2021/03/07 04:23:13;;;;;;;6.50;1.08;;;;;;;1.86;46.38;102575.00;5034679;28;20033;-69
2021/03/07 04:25:39;;;;;;;2.58;0.55;;;;;;;2.04;46.03;102575.44;5033594;28;20033;-71
2021/03/07 04:28:05;;;;;;;2.97;1.15;;;;;;;1.97;46.07;102570.97;5033677;28;20040;-71
2021/03/07 04:30:33;;;;;;;6.50;0.80;;;;;;;2.03;46.09;102571.09;5038966;28;20381;-72
2021/03/07 04:33:00;;;;;;;4.35;0.75;;;;;;;2.12;45.84;102575.59;5032705;28;20033;-70
2021/03/07 04:35:27;;;;;;;2.33;0.55;;;;;;;1.98;45.99;102569.28;5033674;28;20059;-70
2021/03/07 04:37:57;;;;;;;1.77;0.63;;;;;;;2.17;45.39;102568.84;5031616;28;20883;-71
2021/03/07 04:40:23;;;;;;;3.17;0.80;;;;;;;1.98;45.68;102571.84;5018330;28;20772;-70
2021/03/07 04:42:48;;;;;;;1.73;0.73;;;;;;;1.95;45.84;102564.88;5031587;28;20151;-69
2021/03/07 04:45:14;;;;;;;7.53;1.73;;;;;;;2.27;45.22;102563.06;5035419;28;20607;-70
2021/03/07 04:47:43;;;;;;;2.22;0.98;;;;;;;2.29;45.08;102558.78;5032240;28;20123;-70
2021/03/07 04:50:11;;;;;;;5.65;1.33;;;;;;;1.89;45.69;102563.06;5035282;28;20026;-70
2021/03/07 04:52:37;;;;;;;4.07;1.10;;;;;;;2.26;45.10;102555.25;5030518;28;20037;-69
2021/03/07 04:55:04;;;;;;;6.72;1.73;;;;;;;2.17;45.27;102558.50;5050343;28;20036;-70
2021/03/07 04:57:29;;;;;;;7.32;0.98;;;;;;;2.22;45.17;102559.50;5016435;28;20029;-70
2021/03/07 04:59:55;;;;;;;2.42;0.98;;;;;;;2.16;44.92;102551.63;5035485;28;20519;-70
2021/03/07 05:02:20;;;;;;;5.93;1.00;;;;;;;2.15;45.19;102547.28;5042360;28;20483;-69
2021/03/07 05:04:46;;;;;;;3.80;1.30;;;;;;;2.19;44.51;102541.34;5035845;28;20037;-70
2021/03/07 05:07:11;;;;;;;3.35;1.75;;;;;;;2.22;44.03;102538.88;5037242;28;20064;-70
2021/03/07 05:09:36;;;;;;;3.13;1.88;;;;;;;2.00;44.13;102541.78;5037748;28;20036;-70
2021/03/07 05:12:02;;;;;;;7.75;2.22;;;;;;;1.93;44.21;102538.22;5037194;28;20059;-70
2021/03/07 05:14:28;;;;;;;6.47;1.80;;;;;;;2.07;43.91;102538.53;5036350;28;20033;-71
2021/03/07 05:16:53;;;;;;;7.07;1.63;;;;;;;2.09;43.79;102540.31;5037316;28;20065;-70
2021/03/07 05:19:19;;;;;;;5.22;2.22;;;;;;;2.25;43.26;102533.75;5026688;28;20043;-71
2021/03/07 05:21:44;;;;;;;5.88;2.00;;;;;;;2.04;43.57;102535.84;5035540;28;20100;-70
2021/03/07 05:24:10;;;;;;;3.10;1.52;;;;;;;2.25;42.90;102536.34;5019885;28;20056;-70
2021/03/07 05:26:35;;;;;;;8.75;1.58;;;;;;;2.06;42.83;102531.63;5037518;28;20459;-70
2021/03/07 05:29:01;;;;;;;4.25;2.30;;;;;;;1.93;42.39;102526.19;5034439;28;20036;-70
2021/03/07 05:31:26;;;;;;;3.58;2.78;;;;;;;2.01;41.22;102531.50;5038177;28;20540;-70
2021/03/07 05:33:51;;;;;;;4.13;2.60;;;;;;;1.49;40.57;102520.88;5035388;28;20120;-70
2021/03/07 05:36:17;;;;;;;6.97;2.88;;;;;;;1.83;39.79;102538.84;5038541;28;20409;-71
2021/03/07 05:38:42;;;;;;;5.35;2.50;;;;;;;1.80;39.46;102531.91;5033881;28;20116;-70
2021/03/07 05:41:11;;;;;;;8.30;2.47;;;;;;;1.53;39.77;102529.56;5036698;28;20037;-70
2021/03/07 05:43:38;;;;;;;8.20;2.70;;;;;;;1.40;40.16;102528.38;5034611;28;20044;-70
2021/03/07 05:46:03;;;;;;;6.32;3.15;;;;;;;1.75;39.70;102525.75;5036223;28;20087;-70
2021/03/07 05:48:29;;;;;;;8.55;3.25;;;;;;;1.86;39.84;102529.47;5037957;28;20064;-70
2021/03/07 05:50:55;;;;;;;5.63;2.38;;;;;;;1.95;39.59;102518.47;5035382;28;20033;-70
2021/03/07 05:53:21;;;;;;;3.67;2.20;;;;;;;1.82;39.89;102525.09;5036400;28;20617;-70
2021/03/07 05:55:47;;;;;;;3.80;1.63;;;;;;;2.02;39.51;102519.47;5036705;28;20125;-70
2021/03/07 05:58:14;;;;;;;3.08;1.88;;;;;;;2.27;39.18;102513.16;5039240;28;20032;-70
2021/03/07 06:00:40;;;;;;;10.57;2.25;;;;;;;1.83;39.94;102513.06;5034490;28;20105;-72
2021/03/07 06:03:06;;;;;;;4.57;1.83;;;;;;;1.69;40.41;102511.03;5037033;28;20115;-70
2021/03/07 06:05:33;;;;;;;6.60;2.38;;;;;;;2.03;39.96;102505.75;5026447;28;20040;-70
2021/03/07 06:07:59;;;;;;;6.05;2.20;;;;;;;2.35;39.31;102503.84;5037466;28;20461;-70
2021/03/07 06:10:28;;;;;;;4.53;3.08;;;;;;;1.81;40.45;102510.44;5042679;28;20029;-71
2021/03/07 06:13:09;;;;;;;10.00;2.80;;;;;;;1.91;40.50;102507.25;5037323;28;20033;-71
2021/03/07 06:15:35;;;;;;;6.88;2.13;;;;;;;1.54;40.77;102504.66;5036672;28;20744;-70
2021/03/07 06:18:10;;;;;;;3.53;1.80;;;;;;;2.06;40.05;102495.50;5034282;28;20044;-70
2021/03/07 06:20:35;;;;;;;4.15;1.77;;;;;;;2.02;39.93;102504.00;5035366;28;20519;-70
2021/03/07 06:23:02;;;;;;;10.73;2.22;;;;;;;2.16;39.69;102502.63;5025275;28;20033;-70
2021/03/07 06:25:32;;;;;;;6.45;1.60;;;;;;;1.46;40.54;102492.47;5041868;28;20063;-70
2021/03/07 06:27:59;;;;;;;2.33;1.13;;;;;;;1.97;39.87;102500.47;5039922;28;20106;-69
2021/03/07 06:30:32;;;;;;;2.58;1.02;;;;;;;1.58;40.34;102501.31;5033723;28;20528;-70
2021/03/07 06:32:59;;;;;;;1.70;0.90;;;;;;;1.99;39.80;102493.63;5034525;28;20080;-70
2021/03/07 06:35:34;;;;;;;5.20;1.63;;;;;;;2.03;39.82;102493.72;5034729;28;20078;-71
2021/03/07 06:38:02;;;;;;;5.22;1.70;;;;;;;2.14;39.26;102486.22;5027618;28;20076;-69
2021/03/07 06:40:30;;;;;;;4.78;1.40;;;;;;;1.93;39.77;102495.25;5036383;28;20039;-70
2021/03/07 06:42:57;;;;;;;7.75;1.83;;;;;;;1.85;39.98;102490.75;5039459;28;20640;-70
2021/03/07 06:45:23;;;;;;;4.22;1.98;;;;;;;1.98;39.78;102486.75;5039581;28;20029;-70
2021/03/07 06:47:58;;;;;;;6.38;1.75;;;;;;;1.77;39.81;102488.00;5025560;28;20033;-70
2021/03/07 06:50:24;;;;;;;3.72;1.60;;;;;;;2.04;39.42;102492.00;5040561;28;20102;-70
2021/03/07 06:52:58;;;;;;;13.13;1.50;;;;;;;2.12;39.30;102485.31;5036664;28;20033;-70
2021/03/07 06:55:26;;;;;;;6.22;1.98;;;;;;;2.00;39.90;102488.53;5034659;28;20037;-70
2021/03/07 06:57:53;;;;;;;3.80;1.88;;;;;;;1.76;40.13;102483.69;5055645;28;20033;-70
2021/03/07 07:00:38;;;;;;;4.13;1.83;;;;;;;1.96;39.91;102480.69;5036929;28;20067;-70
2021/03/07 07:03:10;;;;;;;3.63;1.70;;;;;;;1.88;39.71;102480.50;5034059;28;20045;-72
2021/03/07 07:05:38;;;;;;;5.10;1.70;;;;;;;1.95;39.67;102477.22;5033512;28;20685;-69
2021/03/07 07:08:04;;;;;;;5.28;1.80;;;;;;;2.34;38.72;102484.06;5040369;28;20041;-69
2021/03/07 07:10:29;;;;;;;3.88;1.67;;;;;;;2.27;39.07;102485.66;5035653;28;20040;-71
2021/03/07 07:13:04;;;;;;;9.13;2.53;;;;;;;2.46;38.50;102476.53;5034560;28;20120;-71
2021/03/07 07:15:30;;;;;;;4.25;2.40;;;;;;;2.32;38.75;102481.44;5023247;28;20086;-70
2021/03/07 07:17:56;;;;;;;2.92;1.63;;;;;;;2.35;38.86;102468.63;5034283;28;20435;-70
2021/03/07 07:20:22;;;;;;;7.82;2.10;;;;;;;1.97;39.54;102465.22;5037080;28;20544;-70
2021/03/07 07:22:48;;;;;;;5.40;1.67;;;;;;;1.99;39.28;102468.72;5033007;28;20052;-71
2021/03/07 07:25:13;;;;;;;4.82;2.20;;;;;;;1.81;39.85;102469.19;5034936;28;20179;-70
2021/03/07 07:27:38;;;;;;;4.00;2.10;;;;;;;2.34;39.17;102476.31;5031273;28;20043;-70
2021/03/07 07:30:05;;;;;;;6.30;2.22;;;;;;;1.63;40.29;102466.19;5033314;28;20065;-70
2021/03/07 07:32:34;;;;;;;3.42;2.10;;;;;;;2.12;39.69;102470.72;5034176;28;20021;-70
2021/03/07 07:35:06;;;;;;;6.38;3.40;;;;;;;2.10;39.79;102471.53;5033434;28;20619;-70
2021/03/07 07:37:40;;;;;;;;;;;;;;;2.61;39.42;102482.84;5033841;28;20029;-70
2021/03/07 07:40:07;;;;;;;6.40;2.88;;;;;;;2.47;39.34;102469.69;5037169;28;19962;-70
2021/03/07 07:42:35;;;;;;;4.93;2.42;;;;;;;2.75;39.28;102469.34;5016943;28;20099;-70
2021/03/07 07:45:09;;;;;;;6.57;3.15;;;;;;;2.18;40.49;102459.66;5035797;28;20107;-70
2021/03/07 07:47:46;;;;;;;15.45;3.40;;;;;;;2.48;39.93;102461.97;5036572;28;20048;-71
2021/03/07 07:50:29;;;;;;;9.52;2.75;;;;;;;2.63;39.63;102461.38;5035029;28;20065;-69
2021/03/07 07:52:59;;;;;;;6.70;3.20;;;;;;;2.81;39.43;102460.00;5037748;28;20036;-69
2021/03/07 07:55:48;;;;;;;6.82;2.58;;;;;;;2.47;39.85;102461.94;5037020;28;20036;-70
2021/03/07 07:58:40;;;;;;;5.25;2.83;;;;;;;2.65;39.80;102461.44;5020731;28;20033;-69
2021/03/07 08:01:13;;;;;;;7.78;3.65;;;;;;;2.40;39.97;102453.22;5033793;28;20029;-70
2021/03/07 08:03:46;;;;;;;9.35;3.42;;;;;;;2.67;39.96;102460.59;5032143;28;20049;-70
2021/03/07 08:06:24;;;;;;;5.88;3.50;;;;;;;2.60;40.00;102451.03;5035616;28;20083;-70
2021/03/07 08:08:50;;;;;;;8.02;3.20;;;;;;;2.29;40.33;102458.16;5034023;28;20032;-69
2021/03/07 08:11:18;;;;;;;8.90;3.17;;;;;;;3.03;39.28;102454.34;5037154;28;20404;-70
2021/03/07 08:13:47;;;;;;;9.90;3.22;;;;;;;2.76;39.69;102455.59;5033553;28;20083;-69
2021/03/07 08:16:13;;;;;;;8.88;3.10;;;;;;;2.80;39.60;102458.22;5035887;28;20080;-70
2021/03/07 08:18:57;;;;;;;10.50;3.00;;;;;;;2.96;39.34;102450.78;5033638;28;20404;-70
2021/03/07 08:21:23;;;;;;;6.30;3.15;;;;;;;3.07;39.22;102445.81;5038060;28;20578;-70
2021/03/07 08:24:06;;;;;;;9.10;3.13;;;;;;;2.96;39.18;102437.00;5034217;28;20045;-70
2021/03/07 08:26:46;;;;;;;17.08;3.70;;;;;;;2.51;40.04;102422.44;5033781;28;20059;-70
2021/03/07 08:29:36;;;;;;;5.75;2.85;;;;;;;3.01;39.02;102413.84;5031583;28;20045;-69
2021/03/07 08:32:28;;;;;;;9.32;3.70;;;;;;;2.89;39.62;102399.88;5035588;28;20032;-69
2021/03/07 08:34:58;;;;;;;6.18;2.95;;;;;;;3.71;38.57;102399.38;5037047;28;20156;-69
2021/03/07 08:37:24;;;;;;;6.10;2.78;;;;;;;4.13;37.73;102405.94;5021772;28;20491;-70
2021/03/07 08:40:31;;;;;;;3.72;2.15;;;;;;;4.03;37.49;102406.69;5036351;28;20041;-69
2021/03/07 08:43:17;;;;;;;9.30;2.70;;;;;;;4.50;37.11;102410.63;5036090;28;20131;-69
2021/03/07 08:46:01;;;;;;;6.07;2.80;;;;;;;4.30;36.90;102410.44;5022894;28;20475;-70
2021/03/07 08:48:28;;;;;;;8.50;3.22;;;;;;;3.88;36.97;102407.38;5032973;28;20058;-69
2021/03/07 08:50:55;;;;;;;7.65;3.42;;;;;;;4.11;37.07;102412.81;5024977;28;20481;-69
2021/03/07 08:53:28;;;;;;;4.50;2.72;;;;;;;4.32;36.55;102407.03;5042972;28;20066;-70
2021/03/07 08:55:54;;;;;;;9.38;3.33;;;;;;;3.93;37.50;102405.69;5040565;28;20037;-70
2021/03/07 08:58:20;;;;;;;6.28;3.63;;;;;;;3.98;37.14;102406.66;5041645;28;20025;-69
2021/03/07 09:00:48;;;;;;;9.38;3.55;;;;;;;3.89;37.35;102406.50;5037267;28;20043;-70
2021/03/07 09:03:14;;;;;;;6.50;3.10;;;;;;;4.64;36.70;102393.53;5037010;28;20063;-71
2021/03/07 09:05:40;;;;;;;9.32;3.38;;;;;;;3.90;37.38;102390.16;5035776;28;20053;-71
2021/03/07 09:08:06;;;;;;;8.15;4.65;;;;;;;3.67;37.96;102395.03;5038095;28;20124;-70
2021/03/07 09:10:45;;;;;;;15.70;5.65;;;;;;;4.06;37.25;102395.50;5019104;28;20120;-72
2021/03/07 09:13:18;;;;;;;7.95;3.75;;;;;;;4.70;36.49;102391.00;5056544;28;20038;-70
2021/03/07 09:16:00;;;;;;;6.72;3.22;;;;;;;5.13;35.97;102388.78;5038558;28;20052;-71
2021/03/07 09:18:27;;;;;;;13.32;4.40;;;;;;;5.40;35.73;102395.84;5033269;28;20043;-71
2021/03/07 09:20:55;;;;;;;6.57;3.95;;;;;;;5.05;35.68;102398.19;5032136;28;20083;-71
2021/03/07 09:23:37;;;;;;;9.55;3.83;;;;;;;5.17;35.76;102387.06;5032500;28;20160;-71
2021/03/07 09:26:09;;;;;;;13.18;4.22;;;;;;;4.69;36.90;102393.56;5023251;28;20418;-71
2021/03/07 09:28:45;;;;;;;6.72;4.00;;;;;;;4.20;37.53;102393.94;5030782;28;20190;-71
2021/03/07 09:31:43;;;;;;;6.47;3.83;;;;;;;4.84;36.74;102404.91;5016189;28;20132;-71
2021/03/07 09:34:08;;;;;;;6.47;3.40;;;;;;;4.89;36.55;102401.53;4979744;28;20507;-72
2021/03/07 09:36:38;;;;;;;9.88;3.38;;;;;;;4.99;36.67;102400.78;5030208;28;20041;-69
2021/03/07 09:39:06;;;;;;;9.77;3.67;;;;;;;4.49;37.10;102391.66;5013988;28;20114;-70
2021/03/07 09:41:33;;;;;;;9.48;3.67;;;;;;;4.06;38.46;102392.94;5029222;28;20029;-70
2021/03/07 09:44:01;;;;;;;12.73;3.72;;;;;;;4.47;38.15;102397.66;5028153;28;20638;-72
2021/03/07 09:46:27;;;;;;;8.25;3.58;;;;;;;4.60;37.83;102390.03;5031047;28;20126;-69
2021/03/07 09:48:56;;;;;;;5.55;3.50;;;;;;;4.83;36.91;102389.34;5031860;28;20037;-69
2021/03/07 09:51:22;;;;;;;7.10;3.92;;;;;;;4.04;38.27;102387.72;5029845;28;20037;-70
2021/03/07 09:53:48;;;;;;;5.95;3.40;;;;;;;4.45;37.57;102387.28;5026258;28;20025;-72
2021/03/07 09:56:43;;;;;;;6.93;3.53;;;;;;;4.05;38.38;102373.06;5027833;28;20033;-70
2021/03/07 09:59:17;;;;;;;8.80;3.28;;;;;;;4.38;38.30;102369.97;5012593;28;20049;-69
2021/03/07 10:01:48;;;;;;;7.13;3.90;;;;;;;4.73;37.78;102369.44;5052065;28;20075;-70
2021/03/07 10:04:30;;;;;;;8.65;4.15;;;;;;;4.48;38.15;102373.53;5026696;28;20029;-70
2021/03/07 10:06:57;;;;;;;10.90;5.13;;;;;;;4.49;38.35;102383.00;5025738;28;20049;-70
2021/03/07 10:09:23;;;;;;;7.70;4.35;;;;;;;4.39;38.13;102375.16;5032147;28;20034;-70
2021/03/07 10:11:56;;;;;;;6.72;4.65;;;;;;;3.69;39.64;102384.69;5012307;28;20443;-70
2021/03/07 10:14:27;;;;;;;10.65;4.15;;;;;;;3.71;39.80;102386.44;5030576;28;20039;-69
2021/03/07 10:16:54;;;;;;;12.27;4.72;;;;;;;3.38;40.42;102382.59;5027582;28;20072;-72
2021/03/07 10:19:20;;;;;;;11.98;5.95;;;;;;;4.07;39.19;102381.72;5028495;28;20033;-70
2021/03/07 10:21:47;;;;;;;12.20;4.82;;;;;;;3.74;40.02;102383.06;5043314;28;20075;-70
2021/03/07 10:24:18;;;;;;;11.00;4.93;;;;;;;3.37;40.92;102383.41;5030412;28;20029;-70
2021/03/07 10:26:46;;;;;;;17.45;5.97;;;;;;;3.90;39.98;102384.13;5027998;28;20036;-70
2021/03/07 10:29:23;;;;;;;22.92;6.50;;;;;;;3.47;41.06;102386.13;5036961;28;20503;-69
2021/03/07 10:32:18;;;;;;;12.40;5.18;;;;;;;3.93;40.31;102381.56;5037625;28;20041;-70
2021/03/07 10:34:48;;;;;;;13.57;6.53;;;;;;;3.95;40.08;102378.13;5034101;28;20037;-70
2021/03/07 10:37:42;;;;;;;13.32;6.00;;;;;;;3.70;40.84;102371.81;5023555;28;20542;-70
2021/03/07 10:40:10;;;;;;;12.35;6.57;;;;;;;3.51;41.50;102373.25;5052568;28;20032;-72
2021/03/07 10:42:38;;;;;;;14.35;6.15;;;;;;;3.84;40.79;102371.97;5015120;28;20068;-72
2021/03/07 10:45:22;;;;;;;13.80;6.65;;;;;;;3.90;40.96;102373.78;5031828;28;20156;-70
2021/03/07 10:47:58;;;;;;;17.85;6.57;;;;;;;3.50;41.94;102365.50;5034600;28;20067;-70
2021/03/07 10:50:24;;;;;;;12.18;5.90;;;;;;;3.06;42.56;102369.13;5030768;28;20040;-70
2021/03/07 10:52:50;;;;;;;17.55;6.63;;;;;;;3.28;42.81;102372.91;5029237;28;20033;-70
2021/03/07 10:55:15;;;;;;;15.25;6.43;;;;;;;3.37;42.64;102380.84;5033531;28;20472;-70
2021/03/07 10:57:42;;;;;;;13.85;6.60;;;;;;;3.73;42.13;102376.13;5029758;28;20043;-69
2021/03/07 11:00:08;;;;;;;13.63;6.63;;;;;;;3.80;41.90;102375.34;5030531;28;20055;-69
2021/03/07 11:02:34;;;;;;;15.98;7.45;;;;;;;3.85;41.95;102378.88;5029310;28;20053;-70
2021/03/07 11:04:59;;;;;;;16.02;8.10;;;;;;;3.18;43.93;102366.75;5028558;28;20171;-72
2021/03/07 11:07:25;;;;;;;18.95;8.98;;;;;;;3.11;44.17;102382.13;5026564;28;20057;-69
2021/03/07 11:09:51;;;;;;;22.38;8.30;;;;;;;3.11;44.84;102372.69;5037945;28;20051;-70
2021/03/07 11:12:16;;;;;;;16.70;7.43;;;;;;;3.08;44.81;102372.63;5032155;28;20024;-69
2021/03/07 11:14:42;;;;;;;17.27;9.02;;;;;;;3.29;44.80;102376.41;5030211;28;20025;-70
2021/03/07 11:17:07;;;;;;;15.48;8.25;;;;;;;3.47;44.21;102370.63;5031087;28;20032;-70
2021/03/07 11:19:33;;;;;;;23.23;7.95;;;;;;;3.52;44.43;102367.25;5013291;28;20060;-70
2021/03/07 11:21:58;;;;;;;24.13;8.25;;;;;;;4.00;43.36;102373.88;5035541;28;20029;-72
2021/03/07 11:24:24;;;;;;;19.55;9.10;;;;;;;3.36;44.50;102362.75;5031304;28;20736;-69
2021/03/07 11:26:51;;;;;;;18.60;8.05;;;;;;;3.39;44.59;102358.47;5029877;28;20033;-69
2021/03/07 11:29:16;;;;;;;16.92;6.70;;;;;;;3.31;44.85;102372.13;5029929;28;20155;-70
2021/03/07 11:31:42;;;;;;;18.85;7.82;;;;;;;3.57;44.28;102362.16;5029952;28;20033;-70
2021/03/07 11:34:08;;;;;;;16.88;7.22;;;;;;;3.45;44.38;102364.56;5027632;28;20088;-69
2021/03/07 11:36:33;;;;;;;16.02;7.03;;;;;;;3.36;44.82;102354.97;5028463;28;20863;-70
2021/03/07 11:38:59;;;;;;;14.90;7.53;;;;;;;3.87;44.45;102353.03;5051026;28;20044;-70